Heat Index SAI AWOS Graphical Display Untitled Document
Sidney Municipal Airport , NY ( N23 )
000
06:05
18/06/21
00
N/A
N/A
29.83
N/A
1027
53(F), 12(C)
53(F), 12(C)
53 F
100%
CLR
7
N/A
N/A
N/A
06:05 zulu Wind Calm, Altimeter 29.83
METAR KN23 210605Z AUTO 00000KT 7SM CLR 12/12 A2983 A02
METAR:
FAA Disclaimer--Advisory Use ONLY, not for flight info-- 6/29/2009: Sidney Airport, operations 607-561-2346, Pilots with cellphones (smartphones) can now view awos at http://www.saiawos3.com/N23
INFO:
Wind Direction:
Wind Speed:
Wind Gust:
Wind Variable:
Altimeter:
Dens Alt:
Elev:
Temp:
Dwpt:
Wind Chill
Rel Humidity:
Ceiling:
Visibility:
Prsnt Wea:
PCPN:
Remarks:
How to read the WebPage